Minneapolis, Minnesota
Current Conditions -  °F | °C
As of 1:53 PM on Tuesday 21 Oct 2014 (Local Time) from KMSP Reporting Station
Clear Clear  
Wind Chill: 55°   Ceiling: Unl
Heat Index: 55°   Visibility: 10mi
Dew Point: 40°   Wind: 9mph
Humidity: 57%   Direction: 120°ESE
Pressure: 30.17"   Gusts: NA
Location:  44.98°N, 93.26°W
Report Text: KMSP 211853Z 12008KT 10SM CLR 13/04 A3017 RMK AO2 SLP221 T01280044
Loading
Personal Weather Stations






























Interactive Weather Map
Tropical Storm Tracking
New forecast layout! Learn more

10-Day Weather Forecast

Advertisements
Track Severe Weather on mobile